createdAt,value
2023-04-27T00:00:59.870Z,0.0906
2023-04-27T00:02:01.542Z,0.1166
2023-04-27T00:03:03.461Z,0.0993
2023-04-27T00:04:05.061Z,0.1452
2023-04-27T00:05:06.480Z,0.1272
2023-04-27T00:06:08.663Z,0.2070
2023-04-27T00:07:09.706Z,0.1760
2023-04-27T00:08:11.357Z,0.1670
2023-04-27T00:09:13.276Z,0.1178
2023-04-27T00:10:14.606Z,0.1439
2023-04-27T00:11:16.396Z,0.1365
2023-04-27T00:12:18.028Z,0.1930
2023-04-27T00:13:19.654Z,0.1861
2023-04-27T00:14:21.234Z,0.1738
2023-04-27T00:15:22.872Z,0.1099
2023-04-27T00:16:25.639Z,0.1657
2023-04-27T00:17:26.302Z,0.1149
2023-04-27T00:18:27.903Z,0.1637
2023-04-27T00:19:29.462Z,0.1738
2023-04-27T00:20:31.245Z,0.2249
2023-04-27T00:21:32.739Z,0.1355
2023-04-27T00:22:34.522Z,0.1197
2023-04-27T00:23:36.111Z,0.1505
2023-04-27T00:24:37.747Z,0.1309
2023-04-27T00:25:39.426Z,0.1519
2023-04-27T00:26:40.993Z,0.1829
2023-04-27T00:27:42.601Z,0.2431
2023-04-27T00:28:44.423Z,0.2138
2023-04-27T00:29:45.996Z,0.1676
2023-04-27T00:30:47.613Z,0.1927
2023-04-27T00:31:49.212Z,0.1259
2023-04-27T00:32:50.965Z,0.1411
2023-04-27T00:33:52.495Z,0.1066
2023-04-27T00:34:54.222Z,0.1272
2023-04-27T00:35:55.816Z,0.1047
2023-04-27T00:36:57.440Z,0.1576
2023-04-27T00:37:59.176Z,0.1799
2023-04-27T00:39:00.723Z,0.2012
2023-04-27T00:40:02.479Z,0.1328
2023-04-27T00:41:04.129Z,0.1928
2023-04-27T00:42:05.702Z,0.1952
2023-04-27T00:43:07.415Z,0.2391
2023-04-27T00:44:09.077Z,0.1893
2023-04-27T00:45:10.768Z,0.1225
2023-04-27T00:46:12.405Z,0.1988
2023-04-27T00:47:14.022Z,0.1690
2023-04-27T00:48:15.677Z,0.2149
2023-04-27T00:49:17.338Z,0.2256
2023-04-27T00:50:19.091Z,0.1408
2023-04-27T00:51:20.616Z,0.1403
2023-04-27T00:52:22.252Z,0.1216
2023-04-27T00:53:23.914Z,0.1253
2023-04-27T00:54:25.536Z,0.1286
2023-04-27T00:55:27.245Z,0.1497
2023-04-27T00:56:28.824Z,0.1312
2023-04-27T00:57:30.668Z,0.1400
2023-04-27T00:58:32.132Z,0.1644
2023-04-27T00:59:33.781Z,0.1849
2023-04-27T01:00:35.673Z,0.2243
2023-04-27T01:01:37.151Z,0.1606
2023-04-27T01:02:38.909Z,0.1165
2023-04-27T01:03:40.602Z,0.1554
2023-04-27T01:04:42.101Z,0.2154
2023-04-27T01:05:43.693Z,0.1883
2023-04-27T01:06:45.333Z,0.1094
2023-04-27T01:07:47.057Z,0.1633
2023-04-27T01:08:48.592Z,0.1636
2023-04-27T01:09:50.297Z,0.1760
2023-04-27T01:10:51.896Z,0.2543
2023-04-27T01:11:53.815Z,0.2005
2023-04-27T01:12:55.366Z,0.1618
2023-04-27T01:13:56.956Z,0.1124
2023-04-27T01:14:58.531Z,0.1582
2023-04-27T01:16:00.192Z,0.1144
2023-04-27T01:17:01.986Z,0.1657
2023-04-27T01:18:03.556Z,0.1324
2023-04-27T01:19:05.098Z,0.1485
2023-04-27T01:20:06.855Z,0.1350
2023-04-27T01:21:09.343Z,0.1574
2023-04-27T01:22:10.129Z,0.1663
2023-04-27T01:23:11.753Z,0.0956
2023-04-27T01:24:13.437Z,0.1098
2023-04-27T01:25:15.021Z,0.1338
2023-04-27T01:26:16.630Z,0.1569
2023-04-27T01:27:18.361Z,0.1569
2023-04-27T01:28:19.964Z,0.1376
2023-04-27T01:29:22.605Z,0.1157
2023-04-27T01:30:23.236Z,0.1389
2023-04-27T01:31:25.230Z,0.1456
2023-04-27T01:32:26.597Z,0.1830
2023-04-27T01:33:28.149Z,0.2011
2023-04-27T01:34:29.872Z,0.1778
2023-04-27T01:35:31.430Z,0.1533
2023-04-27T01:36:33.170Z,0.1416
2023-04-27T01:37:34.724Z,0.1383
2023-04-27T01:38:36.407Z,0.0875
2023-04-27T01:39:38.097Z,0.1252
2023-04-27T01:40:39.726Z,0.1365
2023-04-27T01:41:41.455Z,0.0908
2023-04-27T01:42:42.982Z,0.1621
2023-04-27T01:43:44.776Z,0.1057
2023-04-27T01:44:46.660Z,0.0931
2023-04-27T01:45:47.962Z,0.1251
2023-04-27T01:46:49.724Z,0.1651
2023-04-27T01:47:51.241Z,0.0935
2023-04-27T01:48:52.897Z,0.1112
2023-04-27T01:49:54.613Z,0.1248
2023-04-27T01:50:57.175Z,0.1262
2023-04-27T01:51:57.926Z,0.1444
2023-04-27T01:52:59.528Z,0.1744
2023-04-27T01:54:01.119Z,0.1048
2023-04-27T01:55:02.778Z,0.1971
2023-04-27T01:56:04.434Z,0.0925
2023-04-27T01:57:06.076Z,0.0641
2023-04-27T01:58:07.751Z,0.1165
2023-04-27T01:59:10.643Z,0.1004
2023-04-27T02:00:10.999Z,0.1165
2023-04-27T02:01:12.704Z,0.0587
2023-04-27T02:02:14.339Z,0.2053
2023-04-27T02:03:16.065Z,0.1380
2023-04-27T02:04:17.916Z,0.1406
2023-04-27T02:05:19.264Z,0.0871
2023-04-27T02:06:20.895Z,0.1366
2023-04-27T02:07:23.481Z,0.0787
2023-04-27T02:08:24.173Z,0.1151
2023-04-27T02:09:25.936Z,0.0618
2023-04-27T02:10:27.568Z,0.1145
2023-04-27T02:11:29.219Z,0.1031
2023-04-27T02:12:30.753Z,0.1557
2023-04-27T02:13:32.344Z,0.1563
2023-04-27T02:14:34.133Z,0.2474
2023-04-27T02:15:35.691Z,0.1966
2023-04-27T02:16:37.478Z,0.1732
2023-04-27T02:17:39.904Z,0.2232
2023-04-27T02:18:40.639Z,0.2281
2023-04-27T02:19:42.298Z,0.1497
2023-04-27T02:20:44.340Z,0.2189
2023-04-27T02:21:46.593Z,0.1420
2023-04-27T02:22:48.101Z,0.2497
2023-04-27T02:23:48.777Z,0.2712
2023-04-27T02:24:50.531Z,0.2544
2023-04-27T02:25:52.123Z,0.1797
2023-04-27T02:26:53.772Z,0.1453
2023-04-27T02:27:55.400Z,0.1823
2023-04-27T02:28:57.049Z,0.1085
2023-04-27T02:29:58.723Z,0.1578
2023-04-27T02:31:00.354Z,0.2597
2023-04-27T02:32:02.138Z,0.1995
2023-04-27T02:33:03.641Z,0.1181
2023-04-27T02:34:05.297Z,0.2242
2023-04-27T02:35:06.953Z,0.2224
2023-04-27T02:36:08.552Z,0.2893
2023-04-27T02:37:10.189Z,0.1902
2023-04-27T02:38:11.851Z,0.1582
2023-04-27T02:39:13.712Z,0.0725
2023-04-27T02:40:15.134Z,0.1337
2023-04-27T02:41:16.850Z,0.3096
2023-04-27T02:42:18.401Z,0.1796
2023-04-27T02:43:20.097Z,0.1951
2023-04-27T02:44:21.711Z,0.2438
2023-04-27T02:45:23.431Z,0.2005
2023-04-27T02:46:25.088Z,0.2250
2023-04-27T02:47:26.678Z,0.1322
2023-04-27T02:48:28.319Z,0.1730
2023-04-27T02:49:29.932Z,0.1764
2023-04-27T02:50:31.612Z,0.1764
2023-04-27T02:51:33.242Z,0.0519
2023-04-27T02:52:34.905Z,0.1033
2023-04-27T02:53:36.474Z,0.0999
2023-04-27T02:54:38.156Z,0.1414
2023-04-27T02:55:39.884Z,0.1002
2023-04-27T02:56:41.529Z,0.0960
2023-04-27T02:57:43.043Z,0.0948
2023-04-27T02:58:44.758Z,0.0820
2023-04-27T02:59:46.373Z,0.0900
2023-04-27T03:00:48.940Z,0.0968
2023-04-27T03:01:49.718Z,0.0921
2023-04-27T03:02:51.519Z,0.1511
2023-04-27T03:03:53.179Z,0.2473
2023-04-27T03:04:54.598Z,0.2446
2023-04-27T03:05:56.315Z,0.1180
2023-04-27T03:06:57.917Z,0.1811
2023-04-27T03:07:59.613Z,0.1832
2023-04-27T03:09:01.194Z,0.1975
2023-04-27T03:10:02.828Z,0.1922
2023-04-27T03:11:04.542Z,0.1169
2023-04-27T03:12:06.192Z,0.1700
2023-04-27T03:13:07.772Z,0.1648
2023-04-27T03:14:09.368Z,0.2168
2023-04-27T03:15:11.098Z,0.2513
2023-04-27T03:16:13.601Z,0.1800
2023-04-27T03:17:14.629Z,0.2512
2023-04-27T03:18:16.006Z,0.1469
2023-04-27T03:19:17.599Z,0.2232
2023-04-27T03:20:19.326Z,0.2205
2023-04-27T03:21:20.945Z,0.2090
2023-04-27T03:22:22.638Z,0.1617
2023-04-27T03:23:24.236Z,0.1556
2023-04-27T03:24:25.883Z,0.1206
2023-04-27T03:25:27.527Z,0.1833
2023-04-27T03:26:29.301Z,0.1523
2023-04-27T03:27:30.837Z,0.2187
2023-04-27T03:28:32.552Z,0.2667
2023-04-27T03:29:34.038Z,0.1702
2023-04-27T03:30:35.784Z,0.1172
2023-04-27T03:31:37.461Z,0.1500
2023-04-27T03:32:39.091Z,0.1232
2023-04-27T03:33:40.686Z,0.1966
2023-04-27T03:34:42.300Z,0.1767
2023-04-27T03:35:44.010Z,0.1883
2023-04-27T03:36:45.678Z,0.2358
2023-04-27T03:37:47.333Z,0.1885
2023-04-27T03:38:48.877Z,0.1756
2023-04-27T03:39:50.569Z,0.1594
2023-04-27T03:40:52.288Z,0.1503
2023-04-27T03:41:53.927Z,0.0967
2023-04-27T03:42:56.645Z,0.1565
2023-04-27T03:43:57.257Z,0.1716
2023-04-27T03:44:58.867Z,0.1845
2023-04-27T03:46:00.569Z,0.1137
2023-04-27T03:47:02.096Z,0.1158
2023-04-27T03:48:03.881Z,0.1266
2023-04-27T03:49:05.435Z,0.1129
2023-04-27T03:50:07.680Z,0.1963
2023-04-27T03:51:08.715Z,0.2738
2023-04-27T03:52:10.385Z,0.1378
2023-04-27T03:53:12.057Z,0.1154
2023-04-27T03:54:13.720Z,0.1328
2023-04-27T03:55:15.308Z,0.1222
2023-04-27T03:56:16.973Z,0.1362
2023-04-27T03:57:18.560Z,0.1173
2023-04-27T03:58:20.279Z,0.0941
2023-04-27T03:59:21.875Z,0.1311
2023-04-27T04:00:23.584Z,0.1254
2023-04-27T04:01:25.226Z,0.0545
2023-04-27T04:02:26.975Z,0.1539
2023-04-27T04:03:28.728Z,0.1492
2023-04-27T04:04:30.337Z,0.1232
2023-04-27T04:05:31.814Z,0.1157
2023-04-27T04:06:33.368Z,0.0837
2023-04-27T04:07:35.044Z,0.1640
2023-04-27T04:08:36.632Z,0.0902
2023-04-27T04:09:38.708Z,0.1277
2023-04-27T04:10:40.133Z,0.1361
2023-04-27T04:11:41.618Z,0.0962
2023-04-27T04:12:43.229Z,0.1388
2023-04-27T04:13:44.880Z,0.1276
2023-04-27T04:14:46.578Z,0.1115
2023-04-27T04:15:48.269Z,0.0746
2023-04-27T04:16:49.816Z,0.1150
2023-04-27T04:17:51.476Z,0.1203
2023-04-27T04:18:53.086Z,0.1634
2023-04-27T04:19:54.757Z,0.1012
2023-04-27T04:20:56.459Z,0.0843
2023-04-27T04:21:58.007Z,0.0586
2023-04-27T04:22:59.704Z,0.0899
2023-04-27T04:24:01.331Z,0.0740
2023-04-27T04:25:03.036Z,0.1449
2023-04-27T04:26:04.613Z,0.1421
2023-04-27T04:27:06.267Z,0.1144
2023-04-27T04:28:07.865Z,0.2234
2023-04-27T04:29:10.992Z,0.1087
2023-04-27T04:30:11.140Z,0.1689
2023-04-27T04:31:12.930Z,0.1398
2023-04-27T04:32:14.499Z,0.1047
2023-04-27T04:33:16.061Z,0.0983
2023-04-27T04:34:17.816Z,0.0858
2023-04-27T04:35:19.371Z,0.1116
2023-04-27T04:36:21.112Z,0.1279
2023-04-27T04:37:23.172Z,0.1425
2023-04-27T04:38:24.374Z,0.1166
2023-04-27T04:39:25.938Z,0.1087
2023-04-27T04:40:27.587Z,0.0891
2023-04-27T04:41:29.279Z,0.1515
2023-04-27T04:42:30.957Z,0.1581
2023-04-27T04:43:32.526Z,0.2352
2023-04-27T04:44:34.199Z,0.1476
2023-04-27T04:45:35.814Z,0.0987
2023-04-27T04:46:37.734Z,0.0713
2023-04-27T04:47:39.793Z,0.0904
2023-04-27T04:48:40.752Z,0.0953
2023-04-27T04:49:42.420Z,0.0910
2023-04-27T04:50:44.092Z,0.1113
2023-04-27T04:51:45.801Z,0.0984
2023-04-27T04:52:47.400Z,0.1339
2023-04-27T04:53:49.033Z,0.1708
2023-04-27T04:54:50.698Z,0.2339
2023-04-27T04:55:52.265Z,0.1647
2023-04-27T04:56:53.994Z,0.1238
2023-04-27T04:57:55.643Z,0.1400
2023-04-27T04:58:57.249Z,0.1481
2023-04-27T04:59:59.635Z,0.1058
2023-04-27T05:01:00.499Z,0.0968
2023-04-27T05:02:02.360Z,0.1544
2023-04-27T05:03:04.013Z,0.1177
2023-04-27T05:04:05.675Z,0.1148
2023-04-27T05:05:07.130Z,0.1268
2023-04-27T05:06:08.781Z,0.1704
2023-04-27T05:07:12.016Z,0.1699
2023-04-27T05:08:15.125Z,0.1402
2023-04-27T05:09:13.906Z,0.1217
2023-04-27T05:10:15.254Z,0.1471
2023-04-27T05:11:16.958Z,0.1043
2023-04-27T05:12:18.520Z,0.1130
2023-04-27T05:13:20.248Z,0.1531
2023-04-27T05:14:21.849Z,0.2064
2023-04-27T05:15:23.483Z,0.1534
2023-04-27T05:16:25.170Z,0.1912
2023-04-27T05:17:26.824Z,0.2168
2023-04-27T05:18:28.450Z,0.1553
2023-04-27T05:19:30.157Z,0.1635
2023-04-27T05:20:32.645Z,0.1509
2023-04-27T05:21:33.351Z,0.1556
2023-04-27T05:22:35.040Z,0.1703
2023-04-27T05:23:37.109Z,0.1803
2023-04-27T05:24:38.651Z,0.1532
2023-04-27T05:25:39.967Z,0.1068
2023-04-27T05:26:41.601Z,0.1081
2023-04-27T05:27:43.263Z,0.1586
2023-04-27T05:28:44.914Z,0.1902
2023-04-27T05:29:46.602Z,0.1334
2023-04-27T05:30:48.222Z,0.1315
2023-04-27T05:31:49.883Z,0.0999
2023-04-27T05:32:51.492Z,0.0925
2023-04-27T05:33:53.136Z,0.0745
2023-04-27T05:34:54.803Z,0.1281
2023-04-27T05:35:56.483Z,0.1178
2023-04-27T05:36:58.125Z,0.1522
2023-04-27T05:38:00.687Z,0.1673
2023-04-27T05:39:01.408Z,0.1684
2023-04-27T05:40:03.107Z,0.0761
2023-04-27T05:41:05.081Z,0.0846
2023-04-27T05:42:06.363Z,0.1360
2023-04-27T05:43:07.930Z,0.1763
2023-04-27T05:44:09.609Z,0.1910
2023-04-27T05:45:11.208Z,0.1523
2023-04-27T05:46:13.033Z,0.3227
2023-04-27T05:47:16.169Z,0.1472
2023-04-27T05:48:16.208Z,0.2480
2023-04-27T05:49:17.811Z,0.2316
2023-04-27T05:50:19.506Z,0.1502
2023-04-27T05:51:21.107Z,0.2109
2023-04-27T05:52:22.760Z,0.1195
2023-04-27T05:53:24.417Z,0.1044
2023-04-27T05:54:26.018Z,0.2505
2023-04-27T05:55:27.737Z,0.1555
2023-04-27T05:56:30.221Z,0.1256
2023-04-27T05:57:31.109Z,0.1631
2023-04-27T05:58:32.633Z,0.1157
2023-04-27T05:59:34.293Z,0.1660
2023-04-27T06:00:36.131Z,0.1567
2023-04-27T06:01:37.725Z,0.1487
2023-04-27T06:02:39.631Z,0.1203
2023-04-27T06:03:41.937Z,0.2012
2023-04-27T06:04:42.627Z,0.1902
2023-04-27T06:05:44.290Z,0.1852
2023-04-27T06:06:46.329Z,0.2131
2023-04-27T06:07:47.623Z,0.1313
2023-04-27T06:08:49.194Z,0.1744
2023-04-27T06:09:50.974Z,0.1481
2023-04-27T06:10:52.484Z,0.1381
2023-04-27T06:11:54.254Z,0.1590
2023-04-27T06:12:55.862Z,0.1588
2023-04-27T06:13:57.521Z,0.2169
2023-04-27T06:14:59.161Z,0.2240
2023-04-27T06:16:00.833Z,0.1492
2023-04-27T06:17:03.443Z,0.1276
2023-04-27T06:18:05.114Z,0.1707
2023-04-27T06:19:05.732Z,0.1168
2023-04-27T06:20:08.380Z,0.1014
2023-04-27T06:21:09.058Z,0.1269
2023-04-27T06:22:10.710Z,0.1578
2023-04-27T06:23:12.300Z,0.1408
2023-04-27T06:24:14.935Z,0.2010
2023-04-27T06:25:15.622Z,0.1286
2023-04-27T06:26:18.208Z,0.1373
2023-04-27T06:27:18.835Z,0.1860
2023-04-27T06:28:20.625Z,0.1524
2023-04-27T06:29:22.176Z,0.1687
2023-04-27T06:30:23.896Z,0.1916
2023-04-27T06:31:25.547Z,0.1061
2023-04-27T06:32:27.170Z,0.1002
2023-04-27T06:33:28.795Z,0.0719
2023-04-27T06:34:30.457Z,0.1785
2023-04-27T06:35:32.314Z,0.1437
2023-04-27T06:36:33.688Z,0.1192
2023-04-27T06:37:35.310Z,0.0996
2023-04-27T06:38:37.092Z,0.1804
2023-04-27T06:39:38.667Z,0.2571
2023-04-27T06:40:40.360Z,0.1334
2023-04-27T06:41:41.916Z,0.1843
2023-04-27T06:42:43.606Z,0.2144
2023-04-27T06:43:45.816Z,0.1316
2023-04-27T06:44:47.396Z,0.0810
2023-04-27T06:45:48.610Z,0.4823
2023-04-27T06:46:50.157Z,2.3042
2023-04-27T06:47:52.376Z,2.1567
2023-04-27T06:48:53.418Z,1.5879
2023-04-27T06:49:55.168Z,0.8049
2023-04-27T06:50:57.356Z,0.6620
2023-04-27T06:51:58.402Z,0.6011
2023-04-27T06:53:00.141Z,0.3539
2023-04-27T06:54:01.712Z,0.3292
2023-04-27T06:55:03.395Z,0.3948
2023-04-27T06:56:05.000Z,0.3969
2023-04-27T06:57:06.708Z,0.4127
2023-04-27T06:58:09.243Z,0.3095
2023-04-27T06:59:10.038Z,0.2491
2023-04-27T07:00:12.476Z,0.2283
2023-04-27T07:01:13.410Z,0.1930
2023-04-27T07:02:14.938Z,0.1383
2023-04-27T07:03:16.770Z,0.1561
2023-04-27T07:04:18.260Z,0.2690
2023-04-27T07:05:20.864Z,0.2122
2023-04-27T07:06:21.411Z,0.2413
2023-04-27T07:07:23.156Z,0.2072
2023-04-27T07:08:24.959Z,0.1882
2023-04-27T07:09:27.716Z,0.2280
2023-04-27T07:10:28.053Z,0.2460
2023-04-27T07:11:29.760Z,0.1661
2023-04-27T07:12:31.471Z,0.1115
2023-04-27T07:13:33.025Z,0.1738
2023-04-27T07:14:34.692Z,0.2516
2023-04-27T07:15:36.287Z,0.1767
2023-04-27T07:16:38.132Z,0.2091
2023-04-27T07:17:39.655Z,0.2594
2023-04-27T07:18:43.328Z,0.2018
2023-04-27T07:19:42.912Z,0.1947
2023-04-27T07:20:44.495Z,0.1911
2023-04-27T07:21:46.290Z,0.2032
2023-04-27T07:22:47.754Z,0.2004
2023-04-27T07:23:49.944Z,0.1907
2023-04-27T07:24:51.129Z,0.2113
2023-04-27T07:25:52.889Z,0.1726
2023-04-27T07:26:54.456Z,0.2314
2023-04-27T07:27:56.094Z,0.1751
2023-04-27T07:28:58.387Z,0.3754
2023-04-27T07:29:59.409Z,0.2008
2023-04-27T07:31:00.997Z,0.1034
2023-04-27T07:32:02.768Z,0.1758
2023-04-27T07:33:04.282Z,0.2357
2023-04-27T07:34:05.948Z,0.1914
2023-04-27T07:35:07.610Z,0.1591
2023-04-27T07:36:10.281Z,0.1127
2023-04-27T07:37:10.840Z,0.1895
2023-04-27T07:38:12.549Z,0.1837
2023-04-27T07:39:14.310Z,0.2541
2023-04-27T07:40:15.895Z,0.1410
2023-04-27T07:41:17.484Z,0.1218
2023-04-27T07:42:19.189Z,0.1737
2023-04-27T07:43:20.711Z,0.1748
2023-04-27T07:44:22.873Z,0.1706
2023-04-27T07:45:24.063Z,0.1463
2023-04-27T07:46:25.936Z,0.1942
2023-04-27T07:47:28.507Z,0.1683
2023-04-27T07:48:29.047Z,1.2943
2023-04-27T07:49:30.606Z,2.1277
2023-04-27T07:50:32.308Z,1.7965
2023-04-27T07:51:33.982Z,1.4314
2023-04-27T07:52:35.679Z,2.1946
2023-04-27T07:53:37.220Z,2.1142
2023-04-27T07:54:38.861Z,1.4826
2023-04-27T07:55:40.540Z,0.9115
2023-04-27T07:56:42.274Z,0.6198
2023-04-27T07:57:43.879Z,0.6031
2023-04-27T07:58:45.507Z,0.3150
2023-04-27T07:59:47.088Z,0.3248
2023-04-27T08:00:48.793Z,0.3573
2023-04-27T08:01:50.454Z,0.2761
2023-04-27T08:02:52.351Z,0.2040
2023-04-27T08:03:53.992Z,1.2794
2023-04-27T08:04:55.684Z,2.5101
2023-04-27T08:05:57.465Z,2.1721
2023-04-27T08:06:59.004Z,1.2907
2023-04-27T08:08:00.610Z,0.8926
2023-04-27T08:09:01.998Z,0.6572
2023-04-27T08:10:03.592Z,0.4956
2023-04-27T08:11:05.278Z,0.3137
2023-04-27T08:12:06.928Z,0.4465
2023-04-27T08:13:08.624Z,2.3120
2023-04-27T08:14:10.205Z,2.3444
2023-04-27T08:15:11.827Z,2.3617
2023-04-27T08:16:13.536Z,3.0761
2023-04-27T08:17:15.150Z,2.3562
2023-04-27T08:18:16.887Z,1.1958
2023-04-27T08:19:18.492Z,0.7455
2023-04-27T08:20:20.078Z,0.6887
2023-04-27T08:21:21.767Z,0.4384
2023-04-27T08:22:23.518Z,0.4284
2023-04-27T08:23:25.105Z,0.2878
2023-04-27T08:24:26.718Z,0.3158
2023-04-27T08:25:28.378Z,0.3035
2023-04-27T08:26:29.975Z,0.2864
2023-04-27T08:27:31.725Z,0.9350
2023-04-27T08:28:33.322Z,1.9870
2023-04-27T08:29:35.099Z,2.3073
2023-04-27T08:30:37.224Z,2.3343
2023-04-27T08:31:38.395Z,1.6478
2023-04-27T08:32:39.939Z,0.9082
2023-04-27T08:33:41.822Z,0.5714
2023-04-27T08:34:43.191Z,0.4508
2023-04-27T08:35:44.855Z,0.3629
2023-04-27T08:36:46.536Z,0.3226
2023-04-27T08:37:48.221Z,0.3125
2023-04-27T08:38:49.816Z,0.2943
2023-04-27T08:39:51.500Z,0.3059
2023-04-27T08:40:53.096Z,0.2926
2023-04-27T08:41:54.773Z,0.3169
2023-04-27T08:42:56.464Z,0.5333
2023-04-27T08:43:59.116Z,1.3395
2023-04-27T08:44:59.689Z,1.3551
2023-04-27T08:46:01.420Z,2.0448
2023-04-27T08:47:02.978Z,1.8685
2023-04-27T08:48:04.785Z,1.1480
2023-04-27T08:49:06.483Z,1.1218
2023-04-27T08:50:07.945Z,1.2845
2023-04-27T08:51:09.680Z,1.6861
2023-04-27T08:52:11.320Z,2.3794
2023-04-27T08:53:12.968Z,1.9051
2023-04-27T08:54:14.571Z,1.2483
2023-04-27T08:55:16.917Z,0.7014
2023-04-27T08:56:17.826Z,0.5761
2023-04-27T08:57:19.551Z,0.4893
2023-04-27T08:58:21.184Z,0.5699
2023-04-27T08:59:22.874Z,0.3990
2023-04-27T09:00:24.493Z,0.2872
2023-04-27T09:01:26.184Z,0.2587
2023-04-27T09:02:27.784Z,0.3500
2023-04-27T09:03:29.524Z,0.2106
2023-04-27T09:04:31.097Z,0.1967
2023-04-27T09:05:32.766Z,0.2358
2023-04-27T09:06:34.376Z,0.1531
2023-04-27T09:07:35.997Z,0.1527
2023-04-27T09:08:37.604Z,1.3305
2023-04-27T09:09:39.245Z,2.6077
2023-04-27T09:10:40.972Z,2.6981
2023-04-27T09:11:42.595Z,1.8977
2023-04-27T09:12:44.249Z,1.5359
2023-04-27T09:13:45.842Z,0.9307
2023-04-27T09:14:47.573Z,0.4963
2023-04-27T09:15:49.269Z,0.5147
2023-04-27T09:16:50.897Z,0.4759
2023-04-27T09:17:52.436Z,0.4306
2023-04-27T09:18:54.126Z,0.4240
2023-04-27T09:19:55.805Z,0.4386
2023-04-27T09:20:57.487Z,1.5433
2023-04-27T09:21:59.067Z,1.9383
2023-04-27T09:23:00.691Z,1.6773
2023-04-27T09:24:02.378Z,1.4276
2023-04-27T09:25:04.115Z,1.1426
2023-04-27T09:26:05.726Z,0.9739
2023-04-27T09:27:07.373Z,0.8162
2023-04-27T09:28:09.022Z,0.7713
2023-04-27T09:29:10.664Z,1.1077
2023-04-27T09:30:12.321Z,0.9477
2023-04-27T09:31:13.964Z,1.1213
2023-04-27T09:32:16.791Z,1.0190
2023-04-27T09:33:18.238Z,0.8994
2023-04-27T09:34:18.898Z,0.8718
2023-04-27T09:35:20.568Z,0.7563
2023-04-27T09:36:22.224Z,0.8121
2023-04-27T09:37:23.796Z,0.5934
2023-04-27T09:38:25.493Z,0.7251
2023-04-27T09:39:27.104Z,0.9648
2023-04-27T09:40:29.319Z,0.6713
2023-04-27T09:41:30.610Z,0.8776
2023-04-27T09:42:32.285Z,0.5860
2023-04-27T09:43:33.809Z,0.4285
2023-04-27T09:44:35.371Z,0.5013
2023-04-27T09:45:37.315Z,0.4715
2023-04-27T09:46:38.715Z,0.5898
2023-04-27T09:47:40.493Z,0.6791
2023-04-27T09:48:42.726Z,0.6920
2023-04-27T09:49:43.687Z,0.6801
2023-04-27T09:50:46.254Z,0.7398
2023-04-27T09:51:47.085Z,0.9043
2023-04-27T09:52:48.730Z,0.8066
2023-04-27T09:53:50.300Z,0.6367
2023-04-27T09:54:51.966Z,0.6160
2023-04-27T09:55:53.604Z,0.4449
2023-04-27T09:56:55.286Z,0.5420
2023-04-27T09:57:56.886Z,0.5746
2023-04-27T09:58:59.247Z,0.5056
2023-04-27T10:00:00.227Z,0.4433
2023-04-27T10:01:01.870Z,1.2412
2023-04-27T10:02:17.099Z,1.4229
2023-04-27T10:03:05.282Z,0.8845
2023-04-27T10:04:08.157Z,0.6576
2023-04-27T10:05:08.592Z,0.7333
2023-04-27T10:06:10.221Z,0.8435
2023-04-27T10:07:11.793Z,0.7460
2023-04-27T10:08:13.583Z,0.6912
2023-04-27T10:09:15.423Z,1.1291
2023-04-27T10:10:16.889Z,1.1240
2023-04-27T10:11:18.455Z,0.8124
2023-04-27T10:12:20.109Z,0.6512
2023-04-27T10:13:21.783Z,0.6451
2023-04-27T10:14:23.441Z,0.7214
2023-04-27T10:15:25.134Z,0.6040
2023-04-27T10:16:26.722Z,0.5503
2023-04-27T10:17:28.381Z,0.6044
2023-04-27T10:18:30.102Z,0.6159
2023-04-27T10:19:31.733Z,0.6241
2023-04-27T10:20:33.301Z,0.5864
2023-04-27T10:21:34.977Z,0.6353
2023-04-27T10:22:36.632Z,1.0997
2023-04-27T10:23:38.270Z,0.8701
2023-04-27T10:24:40.381Z,1.1573
2023-04-27T10:25:41.507Z,1.1643
2023-04-27T10:26:43.830Z,0.7461
2023-04-27T10:27:45.798Z,0.7614
2023-04-27T10:28:46.598Z,0.7337
2023-04-27T10:29:48.222Z,0.7815
2023-04-27T10:30:49.917Z,0.6136
2023-04-27T10:31:51.492Z,0.8405
2023-04-27T10:32:53.205Z,0.7778
2023-04-27T10:33:54.811Z,0.5563
2023-04-27T10:34:57.420Z,0.6607
2023-04-27T10:35:58.099Z,0.5290
2023-04-27T10:36:59.696Z,0.4556
2023-04-27T10:38:01.425Z,0.9275
2023-04-27T10:39:03.079Z,0.6307
2023-04-27T10:40:08.339Z,1.0287
2023-04-27T10:41:06.305Z,1.0116
2023-04-27T10:42:07.999Z,0.9421
2023-04-27T10:43:09.607Z,0.9866
2023-04-27T10:44:11.362Z,0.7290
2023-04-27T10:45:12.963Z,0.9919
2023-04-27T10:46:14.678Z,1.1377
2023-04-27T10:47:16.248Z,1.2901
2023-04-27T10:48:17.947Z,1.2834
2023-04-27T10:49:19.620Z,1.0714
2023-04-27T10:50:21.309Z,0.7976
2023-04-27T10:51:22.871Z,0.5601
2023-04-27T10:52:24.493Z,0.4664
2023-04-27T10:53:26.200Z,0.3733
2023-04-27T10:54:27.838Z,0.4239
2023-04-27T10:55:29.561Z,0.4384
2023-04-27T10:56:31.162Z,1.0171
2023-04-27T10:57:32.827Z,0.6489
2023-04-27T10:58:45.254Z,0.6308
2023-04-27T10:59:36.156Z,0.6964
2023-04-27T11:00:37.760Z,1.0910
2023-04-27T11:01:39.514Z,0.9855
2023-04-27T11:02:41.095Z,0.7721
2023-04-27T11:03:42.802Z,0.8434
2023-04-27T11:04:44.448Z,1.0301
2023-04-27T11:05:46.425Z,0.9109
2023-04-27T11:06:47.727Z,0.6950
2023-04-27T11:07:49.350Z,0.5094
2023-04-27T11:08:50.993Z,0.4568
2023-04-27T11:09:52.711Z,0.3474
2023-04-27T11:10:54.306Z,0.3632
2023-04-27T11:11:55.973Z,0.7198
2023-04-27T11:12:57.575Z,0.8490
2023-04-27T11:13:59.334Z,0.9602
2023-04-27T11:15:01.012Z,0.9172
2023-04-27T11:16:02.628Z,0.8794
2023-04-27T11:17:04.264Z,0.9028
2023-04-27T11:18:05.931Z,0.6684
2023-04-27T11:19:07.500Z,0.6262
2023-04-27T11:20:09.433Z,0.7285
2023-04-27T11:21:10.874Z,0.7045
2023-04-27T11:22:12.595Z,0.8141
2023-04-27T11:23:14.116Z,0.7141
2023-04-27T11:24:15.792Z,0.5478
2023-04-27T11:25:17.929Z,0.8848
2023-04-27T11:26:19.201Z,0.7392
2023-04-27T11:27:20.790Z,1.0874
2023-04-27T11:28:22.421Z,1.4110
2023-04-27T11:29:24.024Z,1.1621
2023-04-27T11:30:25.937Z,0.9396
2023-04-27T11:31:28.438Z,0.8479
2023-04-27T11:32:29.057Z,0.7921
2023-04-27T11:33:30.673Z,0.5527
2023-04-27T11:34:32.342Z,0.5691
2023-04-27T11:35:33.979Z,0.5770
2023-04-27T11:36:35.692Z,1.0196
2023-04-27T11:37:37.382Z,1.0074
2023-04-27T11:38:38.966Z,0.9193
2023-04-27T11:39:40.602Z,0.5717
2023-04-27T11:40:42.360Z,0.5177
2023-04-27T11:41:44.040Z,0.2496
2023-04-27T11:42:45.558Z,0.1824
2023-04-27T11:43:47.327Z,0.3225
2023-04-27T11:44:48.912Z,0.7480
2023-04-27T11:45:51.456Z,1.0880
2023-04-27T11:46:52.365Z,0.7949
2023-04-27T11:47:54.011Z,0.7275
2023-04-27T11:48:55.620Z,0.7028
2023-04-27T11:49:57.204Z,0.6874
2023-04-27T11:50:58.943Z,0.7982
2023-04-27T11:52:00.589Z,0.5891
2023-04-27T11:53:02.225Z,0.4372
2023-04-27T11:54:03.846Z,0.3417
2023-04-27T11:55:05.510Z,0.2629
2023-04-27T11:56:07.167Z,0.1579
2023-04-27T11:57:08.859Z,0.3091
2023-04-27T11:58:10.425Z,1.2004
2023-04-27T11:59:12.204Z,0.9281
2023-04-27T12:00:13.795Z,0.7810
2023-04-27T12:01:21.856Z,0.8563
2023-04-27T12:02:17.157Z,1.0767
2023-04-27T12:03:18.882Z,0.9554
2023-04-27T12:04:20.798Z,0.9011
2023-04-27T12:05:22.104Z,1.0098
2023-04-27T12:07:25.344Z,0.9865
2023-04-27T12:08:27.009Z,1.2825
2023-04-27T12:09:28.622Z,1.3921
2023-04-27T12:10:30.297Z,1.2396
2023-04-27T12:11:32.044Z,1.1993
2023-04-27T12:12:33.677Z,1.7265
2023-04-27T12:13:35.533Z,1.6232
2023-04-27T12:14:36.914Z,0.9424
2023-04-27T12:15:38.630Z,0.9764
2023-04-27T12:16:40.264Z,1.0326
2023-04-27T12:17:42.059Z,0.8322
2023-04-27T12:18:43.570Z,0.8081
2023-04-27T12:19:45.308Z,0.9890
2023-04-27T12:20:46.886Z,0.9893
2023-04-27T12:21:48.567Z,1.2537
2023-04-27T12:22:50.193Z,1.7788
2023-04-27T12:23:51.933Z,1.9338
2023-04-27T12:24:53.535Z,1.8348
2023-04-27T12:25:55.146Z,1.8096
2023-04-27T12:26:56.878Z,1.6102
2023-04-27T12:27:59.417Z,1.6933
2023-04-27T12:29:00.230Z,1.4181
2023-04-27T12:30:01.855Z,1.2653
2023-04-27T12:31:03.481Z,0.9587
2023-04-27T12:32:05.073Z,0.6385
2023-04-27T12:33:06.711Z,0.4308
2023-04-27T12:34:08.390Z,0.4269
2023-04-27T12:35:10.352Z,0.5992
2023-04-27T12:36:11.698Z,0.7592
2023-04-27T12:37:13.344Z,0.7427
2023-04-27T12:38:14.973Z,0.7441
2023-04-27T12:39:16.645Z,0.8551
2023-04-27T12:40:18.288Z,0.9409
2023-04-27T12:41:19.987Z,0.9296
2023-04-27T12:42:21.632Z,0.7200
2023-04-27T12:43:23.321Z,0.8109
2023-04-27T12:44:24.947Z,1.2518
2023-04-27T12:45:26.623Z,0.8222
2023-04-27T12:46:28.356Z,0.5990
2023-04-27T12:47:49.903Z,0.3044
2023-04-27T12:48:32.199Z,0.4585
2023-04-27T12:49:33.904Z,0.6361
2023-04-27T12:50:35.847Z,0.8417